Jeffrey G Stover — WDF2069 — position and weather

sailwx.info

Track history (hours):
 
Tides and Currents Weather Stations Pressure Air Temp Water Temp Dewpoint Dewpoint Depression Visibility Wind Speed Wind Dir Waves Ship Positions

Jeffrey G Stover

Owner: AEP River Operations LLC, Chesterfield, MO. More information available from US FCC via Universal Licensing System and Coast Guard Vessel Documentation Center.

Last reported at 2015-Jun-26 13:04 UTC. Time now 2015-Jul-28 13:23 UTC.
Position N 30°45' W 091°22'.
Warning: this ship's position is 32 days out of date.

Length 64 m; draft 3.1 m.

Type: Tow > 200 m length. MMSI: 367424480.

Date/timePositionNaut miles runAvg speedWind from/ knotsBaromVisibWave heightAir tempDewpointWater temp
2015-Jun-26 13:04N 30°45' W 091°22'2 4.0
2015-Jun-26 12:33N 30°43' W 091°21'4 3.7
2015-Jun-26 11:33N 30°40' W 091°19'4 3.8
2015-Jun-26 10:34N 30°36' W 091°18'4 3.6
2015-Jun-26 09:33N 30°34' W 091°15'3 3.2
2015-Jun-26 08:33N 30°31' W 091°17'3 2.7
2015-Jun-26 07:33N 30°31' W 091°14'4 3.8
2015-Jun-26 06:33N 30°28' W 091°12'4 3.7
2015-Jun-26 05:34N 30°24' W 091°12'0 0.0
2015-Jun-26 04:33N 30°24' W 091°12'0 0.0
2015-Jun-26 03:33N 30°24' W 091°12'0 0.0
2015-Jun-26 02:33N 30°24' W 091°12'0 0.0
2015-Jun-26 01:33N 30°24' W 091°12'0 0.0
2015-Jun-26 00:33N 30°24' W 091°12'0 0.0
2015-Jun-25 23:33N 30°24' W 091°12'0 0.0
2015-Jun-25 22:33N 30°24' W 091°12'0 0.0
2015-Jun-25 21:33N 30°24' W 091°12'0 0.0
2015-Jun-25 20:33N 30°24' W 091°12'0 0.0
2015-Jun-25 19:34N 30°24' W 091°12'0 0.0
2015-Jun-25 18:33N 30°24' W 091°12'0 0.0
2015-Jun-25 17:33N 30°24' W 091°12'1 1.4
2015-Jun-25 16:34N 30°23' W 091°14'2 2.4
2015-Jun-25 15:33N 30°21' W 091°12'3 1.7
2015-Jun-25 13:32N 30°17' W 091°14'5 5.0
2015-Jun-25 12:34N 30°16' W 091°08'4 1.8
2015-Jun-25 10:11N 30°12' W 091°06'7 3.4
2015-Jun-25 08:12N 30°07' W 091°01'3 4.7
2015-Jun-25 07:30N 30°06' W 090°58'12 1.0
2015-Jun-24 20:03N 30°15' W 091°07'7 7.3
2015-Jun-24 19:05N 30°18' W 091°14'4 7.5
2015-Jun-24 18:32N 30°19' W 091°09'5 5.6
2015-Jun-24 17:33N 30°22' W 091°14'9 8.5
2015-Jun-24 16:34N 30°30' W 091°12'4 4.0
2015-Jun-24 15:33N 30°30' W 091°17'4 4.0
2015-Jun-24 14:33N 30°34' W 091°16'6 5.6
2015-Jun-24 13:33N 30°39' W 091°19'7 7.4
2015-Jun-24 12:33N 30°46' W 091°23'8 7.9
2015-Jun-24 11:33N 30°44' W 091°32'4 3.7
2015-Jun-24 10:32N 30°48' W 091°32'7 7.0
2015-Jun-24 09:33N 30°55' W 091°33'7 6.9
2015-Jun-24 08:32N 30°58' W 091°40'8 6.3
2015-Jun-24 07:18N 31°04' W 091°35'7 6.0
2015-Jun-24 06:09N 31°11' W 091°35'4 7.3
2015-Jun-24 05:33N 31°14' W 091°39'  
Track history (hours):
 
Tides and Currents Weather Stations Pressure Air Temp Water Temp Dewpoint Dewpoint Depression Visibility Wind Speed Wind Dir Waves Ship Positions

Jeffrey G Stover

Owner: AEP River Operations LLC, Chesterfield, MO. More information available from US FCC via Universal Licensing System and Coast Guard Vessel Documentation Center.

Last reported at 2015-Jun-26 13:04 UTC. Time now 2015-Jul-28 13:23 UTC.
Position N 30°45' W 091°22'.
Warning: this ship's position is 32 days out of date.

Length 64 m; draft 3.1 m.

Type: Tow > 200 m length. MMSI: 367424480.

Date/timePositionNaut miles runAvg speedWind from/ knotsBaromVisibWave heightAir tempDewpointWater temp
2015-Jun-26 13:04N 30°45' W 091°22'2 4.0
2015-Jun-26 12:33N 30°43' W 091°21'4 3.7
2015-Jun-26 11:33N 30°40' W 091°19'4 3.8
2015-Jun-26 10:34N 30°36' W 091°18'4 3.6
2015-Jun-26 09:33N 30°34' W 091°15'3 3.2
2015-Jun-26 08:33N 30°31' W 091°17'3 2.7
2015-Jun-26 07:33N 30°31' W 091°14'4 3.8
2015-Jun-26 06:33N 30°28' W 091°12'4 3.7
2015-Jun-26 05:34N 30°24' W 091°12'0 0.0
2015-Jun-26 04:33N 30°24' W 091°12'0 0.0
2015-Jun-26 03:33N 30°24' W 091°12'0 0.0
2015-Jun-26 02:33N 30°24' W 091°12'0 0.0
2015-Jun-26 01:33N 30°24' W 091°12'0 0.0
2015-Jun-26 00:33N 30°24' W 091°12'0 0.0
2015-Jun-25 23:33N 30°24' W 091°12'0 0.0
2015-Jun-25 22:33N 30°24' W 091°12'0 0.0
2015-Jun-25 21:33N 30°24' W 091°12'0 0.0
2015-Jun-25 20:33N 30°24' W 091°12'0 0.0
2015-Jun-25 19:34N 30°24' W 091°12'0 0.0
2015-Jun-25 18:33N 30°24' W 091°12'0 0.0
2015-Jun-25 17:33N 30°24' W 091°12'1 1.4
2015-Jun-25 16:34N 30°23' W 091°14'2 2.4
2015-Jun-25 15:33N 30°21' W 091°12'3 1.7
2015-Jun-25 13:32N 30°17' W 091°14'5 5.0
2015-Jun-25 12:34N 30°16' W 091°08'4 1.8
2015-Jun-25 10:11N 30°12' W 091°06'7 3.4
2015-Jun-25 08:12N 30°07' W 091°01'3 4.7
2015-Jun-25 07:30N 30°06' W 090°58'12 1.0
2015-Jun-24 20:03N 30°15' W 091°07'7 7.3
2015-Jun-24 19:05N 30°18' W 091°14'4 7.5
2015-Jun-24 18:32N 30°19' W 091°09'5 5.6
2015-Jun-24 17:33N 30°22' W 091°14'9 8.5
2015-Jun-24 16:34N 30°30' W 091°12'4 4.0
2015-Jun-24 15:33N 30°30' W 091°17'4 4.0
2015-Jun-24 14:33N 30°34' W 091°16'6 5.6
2015-Jun-24 13:33N 30°39' W 091°19'7 7.4
2015-Jun-24 12:33N 30°46' W 091°23'8 7.9
2015-Jun-24 11:33N 30°44' W 091°32'4 3.7
2015-Jun-24 10:32N 30°48' W 091°32'7 7.0
2015-Jun-24 09:33N 30°55' W 091°33'7 6.9
2015-Jun-24 08:32N 30°58' W 091°40'8 6.3
2015-Jun-24 07:18N 31°04' W 091°35'7 6.0
2015-Jun-24 06:09N 31°11' W 091°35'4 7.3
2015-Jun-24 05:33N 31°14' W 091°39'  

Dump ship's entire track history